createdAt,value
2023-10-25T00:01:29.105Z,4.38
2023-10-25T00:03:56.069Z,8.20
2023-10-25T00:06:23.151Z,4.90
2023-10-25T00:08:50.781Z,5.82
2023-10-25T00:11:18.823Z,7.55
2023-10-25T00:13:45.687Z,10.52
2023-10-25T00:16:14.600Z,8.25
2023-10-25T00:18:41.719Z,5.40
2023-10-25T00:21:08.679Z,7.25
2023-10-25T00:23:35.545Z,4.72
2023-10-25T00:26:04.581Z,6.57
2023-10-25T00:28:31.604Z,6.53
2023-10-25T00:30:59.874Z,5.70
2023-10-25T00:33:26.816Z,4.97
2023-10-25T00:35:55.347Z,6.43
2023-10-25T00:38:22.505Z,4.10
2023-10-25T00:40:51.693Z,5.18
2023-10-25T00:43:22.032Z,4.82
2023-10-25T00:46:02.123Z,5.95
2023-10-25T00:48:30.329Z,2.63
2023-10-25T00:50:57.638Z,5.60
2023-10-25T00:53:24.998Z,2.58
2023-10-25T00:55:54.017Z,5.85
2023-10-25T00:58:22.711Z,5.53
2023-10-25T01:00:50.953Z,7.57
2023-10-25T01:03:18.032Z,4.28
2023-10-25T01:05:45.169Z,4.78
2023-10-25T01:08:12.080Z,5.63
2023-10-25T01:10:40.408Z,9.15
2023-10-25T01:13:07.402Z,3.58
2023-10-25T01:15:34.439Z,3.28
2023-10-25T01:18:01.521Z,3.58
2023-10-25T01:20:28.750Z,4.88
2023-10-25T01:22:55.610Z,3.40
2023-10-25T01:25:22.595Z,2.92
2023-10-25T01:27:49.666Z,4.75
2023-10-25T01:30:16.544Z,1.52
2023-10-25T01:32:46.138Z,2.95
2023-10-25T01:35:13.050Z,2.70
2023-10-25T01:37:40.751Z,3.70
2023-10-25T01:40:08.327Z,3.88
2023-10-25T01:42:35.485Z,3.30
2023-10-25T01:45:02.475Z,5.20
2023-10-25T01:47:29.425Z,3.63
2023-10-25T01:49:56.340Z,4.32
2023-10-25T01:52:23.330Z,6.63
2023-10-25T01:54:51.888Z,5.35
2023-10-25T01:57:19.109Z,4.03
2023-10-25T01:59:46.121Z,3.17
2023-10-25T02:02:13.063Z,2.03
2023-10-25T02:04:40.257Z,3.70
2023-10-25T02:07:07.262Z,4.30
2023-10-25T02:09:34.271Z,3.38
2023-10-25T02:12:01.153Z,2.35
2023-10-25T02:14:28.110Z,3.60
2023-10-25T02:16:55.220Z,2.97
2023-10-25T02:19:22.176Z,6.80
2023-10-25T02:21:49.110Z,2.47
2023-10-25T02:24:17.005Z,3.05
2023-10-25T02:26:44.046Z,3.50
2023-10-25T02:29:10.945Z,3.10
2023-10-25T02:31:37.983Z,3.72
2023-10-25T02:34:05.309Z,2.38
2023-10-25T02:36:32.326Z,1.90
2023-10-25T02:38:59.443Z,1.35
2023-10-25T02:41:26.725Z,3.40
2023-10-25T02:43:55.094Z,2.45
2023-10-25T02:46:23.112Z,2.30
2023-10-25T02:48:53.742Z,3.60
2023-10-25T02:51:20.863Z,2.67
2023-10-25T02:53:47.917Z,3.55
2023-10-25T02:56:14.819Z,2.38
2023-10-25T02:58:41.721Z,2.95
2023-10-25T03:01:09.311Z,2.13
2023-10-25T03:03:36.369Z,2.50
2023-10-25T03:06:03.877Z,2.45
2023-10-25T03:08:31.424Z,2.40
2023-10-25T03:10:58.389Z,2.25
2023-10-25T03:13:25.620Z,4.35
2023-10-25T03:15:54.390Z,2.88
2023-10-25T03:18:21.396Z,1.80
2023-10-25T03:20:48.552Z,2.20
2023-10-25T03:23:15.531Z,2.55
2023-10-25T03:25:42.459Z,0.90
2023-10-25T03:28:09.416Z,5.10
2023-10-25T03:30:37.303Z,1.83
2023-10-25T03:33:04.319Z,1.92
2023-10-25T03:35:31.552Z,3.05
2023-10-25T03:37:58.489Z,2.22
2023-10-25T03:40:25.367Z,1.98
2023-10-25T03:42:52.342Z,3.00
2023-10-25T03:45:19.331Z,1.10
2023-10-25T03:47:46.278Z,1.55
2023-10-25T03:50:16.860Z,4.35
2023-10-25T03:52:43.748Z,2.83
2023-10-25T03:55:10.926Z,1.17
2023-10-25T03:57:37.892Z,3.03
2023-10-25T04:00:05.228Z,1.55
2023-10-25T04:02:38.998Z,2.97
2023-10-25T04:05:06.204Z,2.58
2023-10-25T04:07:33.279Z,2.38
2023-10-25T04:10:00.302Z,2.40
2023-10-25T04:12:28.956Z,3.50
2023-10-25T04:14:55.813Z,3.35
2023-10-25T04:17:22.671Z,2.40
2023-10-25T04:19:50.109Z,1.95
2023-10-25T04:22:17.030Z,3.25
2023-10-25T04:24:43.950Z,3.83
2023-10-25T04:27:10.937Z,2.20
2023-10-25T04:29:38.035Z,5.68
2023-10-25T04:32:05.490Z,2.65
2023-10-25T04:34:33.760Z,5.63
2023-10-25T04:37:00.637Z,3.50
2023-10-25T04:39:27.517Z,4.60
2023-10-25T04:41:54.945Z,3.38
2023-10-25T04:44:21.818Z,4.07
2023-10-25T04:46:48.800Z,4.20
2023-10-25T04:49:15.799Z,3.97
2023-10-25T04:51:43.063Z,4.80
2023-10-25T04:54:09.998Z,3.42
2023-10-25T04:56:36.851Z,5.60
2023-10-25T04:59:03.746Z,6.75
2023-10-25T05:01:30.680Z,4.05
2023-10-25T05:03:57.883Z,4.20
2023-10-25T05:06:25.250Z,4.47
2023-10-25T05:08:52.397Z,5.22
2023-10-25T05:11:19.411Z,4.53
2023-10-25T05:13:46.505Z,5.30
2023-10-25T05:16:14.020Z,5.32
2023-10-25T05:18:41.234Z,4.05
2023-10-25T05:21:08.888Z,6.20
2023-10-25T05:23:36.059Z,4.60
2023-10-25T05:26:04.158Z,6.30
2023-10-25T05:28:32.250Z,6.15
2023-10-25T05:31:02.875Z,7.32
2023-10-25T05:33:32.163Z,9.90
2023-10-25T05:36:00.994Z,9.60
2023-10-25T05:38:28.336Z,7.72
2023-10-25T05:40:55.328Z,7.90
2023-10-25T05:43:29.075Z,9.13
2023-10-25T05:45:57.446Z,8.75
2023-10-25T05:48:24.898Z,11.60
2023-10-25T05:50:52.250Z,9.23
2023-10-25T05:53:22.285Z,9.73
2023-10-25T05:55:49.463Z,8.85
2023-10-25T05:58:17.501Z,10.00
2023-10-25T06:00:50.146Z,8.40
2023-10-25T06:05:53.349Z,11.88
2023-10-25T06:08:20.589Z,8.32
2023-10-25T06:10:49.235Z,10.48
2023-10-25T06:13:17.418Z,9.63
2023-10-25T06:15:45.965Z,9.07
2023-10-25T06:18:13.197Z,8.02
2023-10-25T06:20:40.131Z,9.75
2023-10-25T06:23:06.961Z,12.52
2023-10-25T06:25:34.066Z,12.73
2023-10-25T06:28:01.153Z,12.05
2023-10-25T06:30:30.857Z,8.73
2023-10-25T06:33:00.697Z,9.75
2023-10-25T06:35:27.587Z,8.32
2023-10-25T06:37:54.747Z,9.40
2023-10-25T06:40:21.935Z,7.60
2023-10-25T06:42:49.152Z,7.30
2023-10-25T06:45:16.858Z,7.32
2023-10-25T06:47:44.257Z,6.32
2023-10-25T06:50:12.652Z,8.32
2023-10-25T06:52:40.064Z,9.60
2023-10-25T06:55:07.888Z,5.88
2023-10-25T06:57:35.228Z,6.65
2023-10-25T07:00:04.014Z,7.70
2023-10-25T07:02:53.271Z,8.48
2023-10-25T07:05:22.052Z,7.43
2023-10-25T07:07:51.897Z,7.38
2023-10-25T07:10:19.260Z,6.32
2023-10-25T07:12:47.061Z,5.53
2023-10-25T07:15:14.055Z,8.13
2023-10-25T07:17:41.093Z,7.90
2023-10-25T07:20:09.264Z,4.82
2023-10-25T07:22:36.604Z,6.38
2023-10-25T07:25:04.010Z,5.35
2023-10-25T07:27:30.859Z,6.30
2023-10-25T07:29:57.769Z,6.50
2023-10-25T07:32:24.669Z,5.50
2023-10-25T07:34:53.152Z,7.30
2023-10-25T07:37:20.012Z,6.38
2023-10-25T07:39:46.837Z,6.68
2023-10-25T07:42:13.732Z,5.57
2023-10-25T07:44:40.859Z,4.93
2023-10-25T07:47:08.046Z,5.70
2023-10-25T07:49:36.168Z,7.40
2023-10-25T07:52:04.592Z,5.97
2023-10-25T07:54:31.541Z,7.40
2023-10-25T07:59:28.414Z,9.10
2023-10-25T08:01:57.484Z,9.95
2023-10-25T08:04:24.418Z,9.52
2023-10-25T08:06:52.151Z,10.27
2023-10-25T08:09:19.091Z,11.25
2023-10-25T08:11:46.154Z,7.38
2023-10-25T08:14:13.019Z,10.60
2023-10-25T08:16:40.821Z,5.70
2023-10-25T08:19:08.532Z,5.88
2023-10-25T08:21:37.116Z,7.95
2023-10-25T08:24:06.482Z,5.50
2023-10-25T08:26:38.337Z,7.55
2023-10-25T08:29:06.950Z,6.57
2023-10-25T08:31:34.620Z,5.00
2023-10-25T08:34:01.943Z,5.72
2023-10-25T08:36:35.378Z,4.97
2023-10-25T08:39:03.539Z,7.20
2023-10-25T08:41:31.689Z,7.80
2023-10-25T08:43:59.668Z,5.70
2023-10-25T08:46:29.612Z,6.45
2023-10-25T08:48:56.530Z,7.85
2023-10-25T08:51:23.438Z,4.55
2023-10-25T08:53:54.797Z,4.40
2023-10-25T08:56:21.975Z,8.18
2023-10-25T08:58:48.821Z,4.43
2023-10-25T09:01:16.043Z,6.13
2023-10-25T09:03:43.396Z,4.68
2023-10-25T09:06:11.533Z,5.70
2023-10-25T09:08:39.239Z,5.43
2023-10-25T09:11:09.893Z,5.65
2023-10-25T09:13:38.282Z,6.90
2023-10-25T09:16:11.043Z,5.80
2023-10-25T09:18:38.804Z,7.57
2023-10-25T09:21:12.160Z,7.78
2023-10-25T09:23:40.482Z,5.00
2023-10-25T09:26:18.296Z,6.88
2023-10-25T09:28:48.800Z,7.15
2023-10-25T09:31:28.258Z,7.25
2023-10-25T09:33:58.567Z,5.45
2023-10-25T09:36:26.514Z,6.97
2023-10-25T09:38:53.594Z,7.68
2023-10-25T09:41:21.342Z,5.80
2023-10-25T09:43:54.930Z,8.05
2023-10-25T09:48:56.938Z,6.68
2023-10-25T09:51:48.829Z,6.65
2023-10-25T09:54:15.767Z,6.28
2023-10-25T09:56:42.765Z,5.68
2023-10-25T09:59:12.941Z,8.73
2023-10-25T10:01:40.576Z,5.32
2023-10-25T10:04:27.776Z,9.13
2023-10-25T10:07:12.809Z,7.32
2023-10-25T10:09:48.570Z,8.10
2023-10-25T10:12:15.464Z,8.13
2023-10-25T10:14:42.750Z,7.57
2023-10-25T10:17:17.512Z,7.60
2023-10-25T10:19:49.786Z,7.72
2023-10-25T10:22:17.962Z,7.03
2023-10-25T10:24:47.800Z,5.68
2023-10-25T10:27:16.265Z,7.20
2023-10-25T10:29:43.887Z,5.95
2023-10-25T10:32:11.178Z,5.53
2023-10-25T10:34:39.279Z,6.82
2023-10-25T10:37:13.085Z,6.53
2023-10-25T10:40:05.056Z,8.18
2023-10-25T10:42:36.182Z,5.25
2023-10-25T10:45:17.112Z,7.35
2023-10-25T10:47:55.097Z,8.82
2023-10-25T10:50:23.216Z,9.55
2023-10-25T10:52:51.400Z,7.85
2023-10-25T10:55:19.570Z,6.57
2023-10-25T10:58:06.181Z,7.00
2023-10-25T11:00:33.652Z,5.22
2023-10-25T11:03:07.799Z,5.35
2023-10-25T11:05:37.935Z,6.43
2023-10-25T11:08:10.555Z,3.38
2023-10-25T11:10:38.008Z,5.88
2023-10-25T11:13:11.270Z,6.22
2023-10-25T11:15:39.475Z,4.90
2023-10-25T11:18:10.523Z,4.57
2023-10-25T11:20:39.578Z,6.28
2023-10-25T11:23:06.961Z,5.97
2023-10-25T11:25:34.022Z,4.93
2023-10-25T11:28:01.002Z,4.55
2023-10-25T11:30:27.884Z,4.43
2023-10-25T11:32:54.930Z,5.53
2023-10-25T11:35:23.780Z,4.68
2023-10-25T11:37:52.373Z,5.80
2023-10-25T11:40:20.104Z,5.20
2023-10-25T11:42:46.990Z,4.10
2023-10-25T11:45:13.978Z,3.75
2023-10-25T11:47:41.376Z,5.95
2023-10-25T11:50:09.412Z,2.67
2023-10-25T11:52:36.254Z,3.78
2023-10-25T11:55:04.348Z,4.38
2023-10-25T11:57:32.387Z,4.18
2023-10-25T11:59:59.356Z,5.50
2023-10-25T12:02:27.897Z,3.50
2023-10-25T12:04:55.506Z,3.00
2023-10-25T12:07:22.678Z,3.40
2023-10-25T12:09:51.258Z,17.25
2023-10-25T12:12:18.598Z,2.05
2023-10-25T12:14:45.717Z,3.28
2023-10-25T12:17:13.087Z,4.13
2023-10-25T12:19:43.478Z,1.75
2023-10-25T12:22:12.234Z,2.92
2023-10-25T12:24:39.575Z,2.10
2023-10-25T12:27:07.111Z,2.65
2023-10-25T12:29:34.210Z,3.03
2023-10-25T12:32:01.475Z,3.03
2023-10-25T12:34:29.796Z,3.53
2023-10-25T12:36:56.741Z,1.88
2023-10-25T12:39:23.828Z,1.92
2023-10-25T12:41:51.676Z,1.88
2023-10-25T12:44:18.664Z,3.90
2023-10-25T12:46:45.575Z,2.75
2023-10-25T12:49:13.320Z,5.80
2023-10-25T12:51:40.274Z,3.05
2023-10-25T12:54:08.814Z,2.63
2023-10-25T12:56:36.346Z,3.22
2023-10-25T12:59:03.789Z,3.03
2023-10-25T13:01:30.935Z,38.95
2023-10-25T13:03:58.044Z,3.28
2023-10-25T13:06:26.350Z,2.20
2023-10-25T13:08:53.465Z,2.13
2023-10-25T13:11:20.412Z,2.72
2023-10-25T13:13:47.322Z,4.90
2023-10-25T13:16:14.284Z,2.35
2023-10-25T13:18:41.250Z,3.83
2023-10-25T13:21:08.206Z,3.20
2023-10-25T13:23:35.805Z,4.15
2023-10-25T13:26:02.752Z,2.60
2023-10-25T13:28:29.699Z,4.68
2023-10-25T13:30:56.567Z,4.03
2023-10-25T13:33:26.662Z,2.63
2023-10-25T13:35:54.436Z,4.38
2023-10-25T13:38:21.333Z,3.67
2023-10-25T13:40:49.552Z,4.32
2023-10-25T13:43:17.254Z,4.13
2023-10-25T13:45:45.550Z,2.72
2023-10-25T13:48:13.033Z,4.38
2023-10-25T13:50:40.097Z,3.60
2023-10-25T13:53:07.109Z,3.95
2023-10-25T13:55:40.423Z,3.88
2023-10-25T13:58:15.739Z,4.70
2023-10-25T14:00:45.710Z,4.47
2023-10-25T14:03:13.193Z,2.75
2023-10-25T14:05:41.948Z,3.25
2023-10-25T14:08:12.151Z,2.70
2023-10-25T14:10:45.903Z,4.13
2023-10-25T14:13:27.801Z,4.38
2023-10-25T14:16:00.020Z,3.17
2023-10-25T14:18:27.218Z,3.13
2023-10-25T14:20:54.144Z,4.03
2023-10-25T14:23:21.111Z,4.25
2023-10-25T14:25:49.017Z,4.18
2023-10-25T14:28:16.163Z,2.53
2023-10-25T14:30:43.836Z,3.58
2023-10-25T14:33:11.531Z,2.50
2023-10-25T14:35:39.176Z,2.20
2023-10-25T14:38:06.250Z,2.58
2023-10-25T14:40:42.153Z,2.75
2023-10-25T14:43:09.301Z,1.92
2023-10-25T14:45:36.470Z,2.50
2023-10-25T14:48:04.009Z,2.38
2023-10-25T14:50:38.053Z,1.83
2023-10-25T14:53:05.243Z,3.33
2023-10-25T14:55:36.900Z,2.10
2023-10-25T14:58:04.252Z,1.85
2023-10-25T15:00:31.240Z,2.67
2023-10-25T15:02:58.512Z,2.75
2023-10-25T15:05:26.893Z,1.85
2023-10-25T15:07:56.219Z,2.72
2023-10-25T15:10:23.232Z,3.88
2023-10-25T15:12:50.160Z,1.67
2023-10-25T15:15:17.376Z,3.47
2023-10-25T15:17:47.052Z,4.65
2023-10-25T15:20:15.170Z,3.22
2023-10-25T15:22:42.313Z,1.85
2023-10-25T15:25:10.952Z,5.28
2023-10-25T15:27:38.324Z,2.78
2023-10-25T15:30:06.130Z,1.75
2023-10-25T15:32:33.276Z,2.45
2023-10-25T15:35:03.016Z,3.05
2023-10-25T15:37:29.956Z,3.67
2023-10-25T15:42:36.800Z,1.83
2023-10-25T15:45:08.597Z,2.00
2023-10-25T15:47:35.681Z,4.55
2023-10-25T15:50:02.716Z,3.90
2023-10-25T15:52:29.649Z,2.42
2023-10-25T15:54:57.455Z,1.30
2023-10-25T15:57:24.424Z,1.92
2023-10-25T15:59:51.461Z,1.48
2023-10-25T16:02:18.505Z,3.38
2023-10-25T16:04:46.536Z,1.83
2023-10-25T16:07:13.622Z,2.72
2023-10-25T16:09:40.519Z,3.03
2023-10-25T16:12:09.134Z,2.13
2023-10-25T16:14:36.036Z,1.95
2023-10-25T16:17:03.095Z,2.13
2023-10-25T16:19:31.605Z,2.67
2023-10-25T16:21:59.337Z,2.22
2023-10-25T16:24:26.323Z,2.33
2023-10-25T16:26:53.353Z,2.83
2023-10-25T16:29:20.445Z,2.30
2023-10-25T16:31:47.418Z,3.35
2023-10-25T16:34:16.864Z,2.38
2023-10-25T16:36:57.149Z,2.60
2023-10-25T16:39:31.821Z,3.67
2023-10-25T16:41:59.775Z,3.72
2023-10-25T16:44:27.129Z,1.90
2023-10-25T16:46:54.093Z,3.38
2023-10-25T16:49:22.911Z,2.70
2023-10-25T16:51:49.912Z,3.55
2023-10-25T16:54:16.848Z,3.00
2023-10-25T16:56:44.017Z,3.13
2023-10-25T16:59:11.049Z,3.33
2023-10-25T17:01:39.406Z,2.70
2023-10-25T17:04:06.763Z,1.88
2023-10-25T17:06:34.115Z,2.95
2023-10-25T17:09:01.209Z,3.28
2023-10-25T17:11:28.437Z,1.73
2023-10-25T17:13:55.398Z,4.68
2023-10-25T17:16:22.347Z,5.32
2023-10-25T17:18:51.649Z,2.65
2023-10-25T17:21:18.730Z,2.05
2023-10-25T17:23:45.962Z,2.42
2023-10-25T17:26:13.286Z,4.22
2023-10-25T17:28:40.871Z,2.03
2023-10-25T17:31:07.913Z,3.70
2023-10-25T17:33:34.870Z,3.45
2023-10-25T17:36:02.378Z,3.03
2023-10-25T17:38:29.997Z,5.78
2023-10-25T17:40:58.078Z,3.75
2023-10-25T17:43:25.307Z,4.93
2023-10-25T17:48:23.612Z,7.63
2023-10-25T17:50:51.271Z,6.07
2023-10-25T17:53:18.727Z,5.95
2023-10-25T17:55:45.674Z,6.18
2023-10-25T17:58:12.810Z,7.90
2023-10-25T18:00:44.272Z,7.90
2023-10-25T18:03:11.329Z,6.22
2023-10-25T18:05:42.022Z,7.25
2023-10-25T18:08:12.314Z,8.18
2023-10-25T18:10:42.942Z,7.97
2023-10-25T18:13:09.814Z,7.22
2023-10-25T18:15:38.148Z,5.68
2023-10-25T18:18:05.679Z,7.13
2023-10-25T18:20:33.145Z,7.45
2023-10-25T18:23:00.190Z,6.50
2023-10-25T18:25:27.585Z,7.88
2023-10-25T18:27:55.275Z,6.55
2023-10-25T18:31:56.652Z,7.25
2023-10-25T18:33:12.093Z,8.75
2023-10-25T18:35:39.198Z,8.07
2023-10-25T18:38:08.689Z,7.60
2023-10-25T18:40:35.808Z,7.70
2023-10-25T18:43:03.477Z,7.00
2023-10-25T18:45:31.067Z,8.43
2023-10-25T18:47:58.075Z,10.60
2023-10-25T18:50:27.464Z,8.15
2023-10-25T18:52:54.333Z,8.18
2023-10-25T18:55:21.250Z,12.32
2023-10-25T18:57:48.186Z,10.25
2023-10-25T19:00:20.476Z,7.55
2023-10-25T19:02:49.946Z,9.55
2023-10-25T19:06:29.539Z,10.32
2023-10-25T19:08:27.329Z,8.50
2023-10-25T19:10:52.210Z,8.57
2023-10-25T19:13:19.098Z,8.30
2023-10-25T19:15:47.075Z,10.20
2023-10-25T19:18:15.956Z,9.95
2023-10-25T19:20:43.121Z,9.13
2023-10-25T19:23:10.256Z,8.70
2023-10-25T19:25:37.800Z,8.43
2023-10-25T19:28:05.451Z,9.18
2023-10-25T19:30:34.106Z,9.98
2023-10-25T19:33:01.351Z,10.20
2023-10-25T19:35:28.326Z,6.95
2023-10-25T19:37:56.510Z,6.63
2023-10-25T19:40:23.472Z,8.38
2023-10-25T19:42:50.415Z,8.85
2023-10-25T19:45:17.340Z,9.18
2023-10-25T19:47:44.347Z,9.02
2023-10-25T19:50:11.513Z,9.05
2023-10-25T19:52:38.404Z,7.72
2023-10-25T19:55:05.637Z,7.80
2023-10-25T19:57:32.584Z,8.60
2023-10-25T20:00:00.915Z,8.75
2023-10-25T20:02:30.748Z,9.38
2023-10-25T20:07:24.736Z,8.93
2023-10-25T20:09:51.733Z,8.18
2023-10-25T20:12:18.879Z,6.85
2023-10-25T20:14:46.075Z,7.15
2023-10-25T20:17:13.178Z,8.00
2023-10-25T20:19:40.194Z,9.57
2023-10-25T20:22:07.149Z,8.25
2023-10-25T20:24:34.708Z,9.07
2023-10-25T20:27:02.077Z,8.98
2023-10-25T20:29:29.057Z,8.45
2023-10-25T20:31:58.599Z,9.07
2023-10-25T20:34:25.530Z,7.30
2023-10-25T20:36:52.518Z,9.60
2023-10-25T20:39:19.482Z,7.00
2023-10-25T20:41:48.809Z,6.78
2023-10-25T20:44:15.966Z,7.47
2023-10-25T20:46:44.540Z,7.15
2023-10-25T20:49:12.736Z,7.85
2023-10-25T20:51:39.654Z,6.93
2023-10-25T20:54:08.206Z,8.30
2023-10-25T20:56:35.520Z,6.30
2023-10-25T20:59:04.376Z,7.05
2023-10-25T21:01:32.048Z,7.60
2023-10-25T21:03:59.116Z,7.18
2023-10-25T21:06:27.657Z,6.63
2023-10-25T21:08:56.108Z,8.00
2023-10-25T21:11:23.139Z,8.35
2023-10-25T21:13:50.113Z,8.15
2023-10-25T21:16:17.136Z,10.30
2023-10-25T21:18:45.663Z,11.55
2023-10-25T21:21:13.449Z,9.95
2023-10-25T21:23:42.107Z,9.30
2023-10-25T21:26:09.362Z,9.10
2023-10-25T21:28:36.325Z,9.63
2023-10-25T21:31:08.039Z,10.32
2023-10-25T21:33:35.968Z,9.93
2023-10-25T21:36:10.473Z,10.93
2023-10-25T21:38:38.233Z,10.48
2023-10-25T21:41:06.052Z,9.95
2023-10-25T21:43:33.366Z,10.02
2023-10-25T21:46:00.394Z,12.10
2023-10-25T21:48:27.459Z,10.25
2023-10-25T21:51:04.732Z,11.82
2023-10-25T21:53:39.744Z,11.75
2023-10-25T21:56:21.497Z,13.23
2023-10-25T21:59:49.893Z,10.23
2023-10-25T22:01:44.598Z,12.70
2023-10-25T22:04:11.531Z,12.82
2023-10-25T22:06:41.822Z,14.00
2023-10-25T22:09:13.567Z,10.00
2023-10-25T22:11:42.740Z,10.80
2023-10-25T22:14:09.953Z,11.00
2023-10-25T22:16:39.011Z,9.73
2023-10-25T22:19:06.458Z,10.98
2023-10-25T22:21:36.637Z,10.45
2023-10-25T22:24:06.149Z,11.88
2023-10-25T22:26:33.756Z,11.35
2023-10-25T22:29:12.451Z,11.15
2023-10-25T22:31:42.666Z,11.55
2023-10-25T22:34:11.983Z,12.40
2023-10-25T22:36:43.350Z,11.57
2023-10-25T22:39:10.539Z,11.25
2023-10-25T22:41:37.998Z,11.45
2023-10-25T22:44:05.267Z,9.27
2023-10-25T22:46:32.466Z,11.38
2023-10-25T22:49:00.238Z,13.02
2023-10-25T22:51:28.245Z,12.70
2023-10-25T22:53:56.383Z,10.30
2023-10-25T22:56:23.346Z,11.57
2023-10-25T22:58:59.507Z,10.20
2023-10-25T23:01:30.634Z,9.93
2023-10-25T23:03:57.554Z,10.30
2023-10-25T23:06:24.687Z,11.90
2023-10-25T23:08:51.618Z,11.98
2023-10-25T23:11:18.516Z,10.90
2023-10-25T23:13:47.541Z,13.90
2023-10-25T23:16:17.922Z,9.35
2023-10-25T23:18:45.009Z,14.15
2023-10-25T23:21:12.036Z,9.90
2023-10-25T23:23:39.064Z,10.65
2023-10-25T23:26:07.170Z,11.32
2023-10-25T23:28:34.101Z,12.32
2023-10-25T23:31:08.018Z,9.52
2023-10-25T23:33:36.881Z,11.70
2023-10-25T23:36:08.013Z,10.90
2023-10-25T23:38:35.065Z,13.52
2023-10-25T23:41:02.135Z,11.05
2023-10-25T23:43:29.041Z,10.98
2023-10-25T23:45:56.405Z,13.15
2023-10-25T23:48:23.672Z,10.23
2023-10-25T23:50:52.740Z,14.13
2023-10-25T23:53:19.586Z,12.77
2023-10-25T23:55:46.564Z,11.82
2023-10-25T23:58:17.298Z,12.60
